»·PEaware :: DAL2141 KSFO-KSEA

DAL2141 :: KSFO-KSEA

FLIGHT INFORMATION

Flight Status: Arrived
Operator:
Delta Air Lines
More flights by this operator :: More flights under this callsign
Pilot: Perry D. (5109)
Aircraft: BOEING 737-800
(B738)
More flights by this aircraft type
Origin: KSFO San Francisco Intl
United States
Destination: KSEA Seattle-Tacoma Intl
United States
More flights between these airports :: More routes between these airports
Route: +TRUKN2 DEDHD RBL LMT HAWKZ6
File this flight plan on PilotEdge
Remarks:
Altitude:
(Current/Filed)
30,000ft
Speed:
(Current/Filed)
450kts
Departed: 05-Jan-18 03:45 PM
Arrived: 05-Jan-18 05:18 PM
Distance/Time
Traveled:
589nm/1:33
Distance/Time
To Go:
Arrived

Flight Plot

Page will automatically refresh every two minutes.

Flight plan parsing failed; only flown route is shown


Map Options




Map Legend


Flown Route
Filed Route
Departure Airport
Arrival Airport
Navaid (VOR, NDB)
Fix

Horizontal Profiles

Position Reports

Time Latitude Longitude Heading Altitude Ground
Speed
05-Jan-18 15:38 32.732266 -117.200135 185 24ft 0kts
05-Jan-18 15:39 32.732266 -117.200135 185 24ft 0kts
05-Jan-18 15:40 32.732266 -117.200135 185 24ft 0kts
05-Jan-18 15:41 32.732266 -117.200135 185 24ft 0kts
05-Jan-18 15:44 37.613371 -122.388147 297 22ft 0kts
05-Jan-18 15:45 37.613371 -122.388147 297 22ft 0kts
05-Jan-18 15:46 37.613371 -122.388147 297 22ft 0kts
05-Jan-18 15:47 37.613382 -122.388171 300 22ft 3kts
05-Jan-18 15:48 37.611164 -122.386758 148 22ft 17kts
05-Jan-18 15:49 37.609198 -122.383667 155 22ft 5kts
05-Jan-18 15:50 37.608719 -122.382540 58 22ft 11kts
05-Jan-18 15:51 37.636113 -122.363006 23 351ft 175kts
05-Jan-18 15:52 37.680435 -122.308939 76 2782ft 265kts
05-Jan-18 15:53 37.712843 -122.223157 35 7177ft 288kts
05-Jan-18 15:54 37.792593 -122.201846 4 11007ft 308kts
05-Jan-18 15:55 37.883467 -122.187413 3 13885ft 349kts
05-Jan-18 15:56 37.982703 -122.170896 2 17018ft 368kts
05-Jan-18 15:57 38.086841 -122.153746 1 19522ft 387kts
05-Jan-18 15:58 38.195880 -122.135803 1 22048ft 404kts
05-Jan-18 15:59 38.310205 -122.116964 0 24195ft 422kts
05-Jan-18 16:00 38.426139 -122.118564 346 26419ft 419kts
05-Jan-18 16:01 38.544080 -122.127586 346 28395ft 428kts
05-Jan-18 16:02 38.663943 -122.135761 344 30097ft 437kts
05-Jan-18 16:03 38.788006 -122.144620 345 30251ft 460kts
05-Jan-18 16:04 38.917471 -122.153436 345 30249ft 466kts
05-Jan-18 16:05 39.046685 -122.162548 345 30250ft 465kts
05-Jan-18 16:06 39.175836 -122.171543 345 30248ft 465kts
05-Jan-18 16:07 39.304828 -122.180562 345 30236ft 463kts
05-Jan-18 16:08 39.433434 -122.189560 345 30230ft 463kts
05-Jan-18 16:09 39.562354 -122.198554 345 30233ft 462kts
05-Jan-18 16:10 39.690752 -122.207549 345 30233ft 463kts
05-Jan-18 16:11 39.818705 -122.216484 345 30230ft 461kts
05-Jan-18 16:12 39.947148 -122.225442 345 30227ft 461kts
05-Jan-18 16:13 40.075049 -122.234395 345 30224ft 461kts
05-Jan-18 16:14 40.206482 -122.209960 1 30218ft 485kts
05-Jan-18 16:15 40.339076 -122.176351 0 30218ft 483kts
05-Jan-18 16:16 40.471209 -122.143864 0 30208ft 485kts
05-Jan-18 16:17 40.603912 -122.110930 0 30205ft 486kts
05-Jan-18 16:18 40.736479 -122.078097 1 30204ft 486kts
05-Jan-18 16:19 40.869100 -122.045272 1 30202ft 486kts
05-Jan-18 16:20 41.002231 -122.012295 1 30199ft 486kts
05-Jan-18 16:21 41.133882 -121.979646 2 30198ft 481kts
05-Jan-18 16:22 41.268617 -121.946555 0 30191ft 507kts
05-Jan-18 16:23 41.407632 -121.911818 0 30179ft 506kts
05-Jan-18 16:24 41.546159 -121.877643 0 30176ft 507kts
05-Jan-18 16:25 41.685165 -121.843175 0 30172ft 507kts
05-Jan-18 16:26 41.824195 -121.808796 0 30167ft 509kts
05-Jan-18 16:27 41.963262 -121.774330 0 30167ft 509kts
05-Jan-18 16:28 42.102535 -121.739752 0 30166ft 507kts
05-Jan-18 16:29 42.236189 -121.746297 336 30169ft 472kts
05-Jan-18 16:30 42.365338 -121.778712 337 30166ft 472kts
05-Jan-18 16:31 42.495070 -121.809671 338 30164ft 471kts
05-Jan-18 16:32 42.624137 -121.840826 338 30165ft 471kts
05-Jan-18 16:33 42.753934 -121.872009 339 30170ft 472kts
05-Jan-18 16:34 42.882894 -121.903028 339 30172ft 470kts
05-Jan-18 16:35 43.011974 -121.934074 339 30172ft 470kts
05-Jan-18 16:36 43.141110 -121.965165 340 30175ft 471kts
05-Jan-18 16:37 43.269781 -121.996072 341 30169ft 471kts
05-Jan-18 16:38 43.398201 -122.026970 342 30161ft 469kts
05-Jan-18 16:39 43.526953 -122.057923 342 30171ft 469kts
05-Jan-18 16:40 43.655297 -122.088797 342 30169ft 468kts
05-Jan-18 16:41 43.784077 -122.119783 343 30168ft 470kts
05-Jan-18 16:42 43.912518 -122.150649 343 30166ft 469kts
05-Jan-18 16:43 44.040863 -122.181518 343 30166ft 468kts
05-Jan-18 16:44 44.169644 -122.212505 343 30154ft 469kts
05-Jan-18 16:45 44.297894 -122.243326 343 30154ft 468kts
05-Jan-18 16:46 44.425921 -122.274127 343 30155ft 467kts
05-Jan-18 16:47 44.554103 -122.304952 343 30148ft 466kts
05-Jan-18 16:48 44.681531 -122.335589 344 30143ft 465kts
05-Jan-18 16:49 44.808716 -122.366172 344 30154ft 463kts
05-Jan-18 16:50 44.935577 -122.396744 344 30145ft 464kts
05-Jan-18 16:51 45.062615 -122.427169 345 30137ft 464kts
05-Jan-18 16:52 45.189948 -122.457841 345 30138ft 463kts
05-Jan-18 16:53 45.316729 -122.488296 345 30140ft 462kts
05-Jan-18 16:54 45.443803 -122.518859 345 30143ft 464kts
05-Jan-18 16:55 45.571446 -122.549539 345 30141ft 465kts
05-Jan-18 16:56 45.677293 -122.574974 345 30140ft 464kts
05-Jan-18 16:57 45.823964 -122.610199 345 28253ft 450kts
05-Jan-18 16:58 45.926098 -122.635833 345 26568ft 440kts
05-Jan-18 16:59 46.044967 -122.665223 345 24650ft 428kts
05-Jan-18 17:00 46.180400 -122.694770 348 22468ft 415kts
05-Jan-18 17:01 46.274629 -122.713067 347 20968ft 406kts
05-Jan-18 17:02 46.404548 -122.726065 355 18962ft 398kts
05-Jan-18 17:03 46.496316 -122.728408 355 17601ft 391kts
05-Jan-18 17:04 46.600247 -122.732274 355 15420ft 354kts
05-Jan-18 17:05 46.696748 -122.735791 355 12643ft 344kts
05-Jan-18 17:06 46.790464 -122.727951 23 12083ft 343kts
05-Jan-18 17:07 46.864523 -122.644907 39 12056ft 322kts
05-Jan-18 17:08 46.935413 -122.565526 31 12059ft 322kts
05-Jan-18 17:09 47.020084 -122.525814 14 11221ft 319kts
05-Jan-18 17:10 47.105468 -122.493600 3 10236ft 315kts
05-Jan-18 17:11 47.192248 -122.479652 4 10064ft 314kts
05-Jan-18 17:12 47.274824 -122.467141 3 9063ft 290kts
05-Jan-18 17:13 47.355102 -122.454893 1 8192ft 287kts
05-Jan-18 17:14 47.433598 -122.455314 356 7076ft 278kts
05-Jan-18 17:15 47.506547 -122.455372 356 6376ft 255kts
05-Jan-18 17:16 47.575556 -122.442260 7 5625ft 234kts
05-Jan-18 17:17 47.636086 -122.427015 31 4181ft 209kts
05-Jan-18 17:18 47.647171 -122.355731 97 3079ft 182kts
05-Jan-18 17:19 47.618498 -122.307897 166 2760ft 161kts
05-Jan-18 17:20 47.574175 -122.306766 179 2144ft 151kts
05-Jan-18 17:21 47.533229 -122.307120 180 1759ft 145kts
05-Jan-18 17:22 47.492264 -122.307466 177 979ft 145kts
05-Jan-18 17:23 47.454020 -122.307836 182 372ft 94kts
05-Jan-18 17:24 47.445919 -122.307703 136 371ft 11kts
05-Jan-18 17:25 47.445128 -122.305817 183 371ft 11kts
05-Jan-18 17:26 47.440898 -122.305492 49 371ft 6kts
05-Jan-18 17:27 47.439309 -122.301826 167 371ft 0kts
05-Jan-18 17:28 47.439309 -122.301826 167 371ft 0kts
05-Jan-18 17:29 47.439309 -122.301826 167 371ft 0kts
05-Jan-18 17:30 47.439308 -122.301826 167 371ft 0kts

Navigation Log

Ident Type
Flight plan parsing failed, navigation log unavailable